createdAt,value
2023-03-05T00:02:11.425Z,33.70
2023-03-05T00:04:38.640Z,33.80
2023-03-05T00:07:06.070Z,33.80
2023-03-05T00:09:34.981Z,33.80
2023-03-05T00:12:03.233Z,33.70
2023-03-05T00:14:30.404Z,33.70
2023-03-05T00:16:57.503Z,33.70
2023-03-05T00:19:24.645Z,33.70
2023-03-05T00:21:51.764Z,33.70
2023-03-05T00:24:19.114Z,33.70
2023-03-05T00:26:46.471Z,33.70
2023-03-05T00:29:18.568Z,33.60
2023-03-05T00:31:46.333Z,33.70
2023-03-05T00:34:16.029Z,33.60
2023-03-05T00:36:46.981Z,33.60
2023-03-05T00:39:15.451Z,33.60
2023-03-05T00:41:42.605Z,33.70
2023-03-05T00:44:10.101Z,33.70
2023-03-05T00:46:37.812Z,33.70
2023-03-05T00:49:05.355Z,33.60
2023-03-05T00:51:32.877Z,33.60
2023-03-05T00:54:00.023Z,33.60
2023-03-05T00:56:27.184Z,33.60
2023-03-05T00:58:54.321Z,33.60
2023-03-05T01:01:21.655Z,33.60
2023-03-05T01:03:48.767Z,33.60
2023-03-05T01:06:17.240Z,33.60
2023-03-05T01:08:45.726Z,33.60
2023-03-05T01:11:13.199Z,33.60
2023-03-05T01:13:40.431Z,33.60
2023-03-05T01:16:07.912Z,33.60
2023-03-05T01:18:35.399Z,33.60
2023-03-05T01:21:03.524Z,33.60
2023-03-05T01:23:30.911Z,33.60
2023-03-05T01:25:59.662Z,33.60
2023-03-05T01:28:27.802Z,33.60
2023-03-05T01:30:54.973Z,33.60
2023-03-05T01:33:22.268Z,33.60
2023-03-05T01:35:50.394Z,33.60
2023-03-05T01:38:17.803Z,33.60
2023-03-05T01:40:45.037Z,33.60
2023-03-05T01:43:29.557Z,33.60
2023-03-05T01:46:36.694Z,33.60
2023-03-05T01:49:29.634Z,33.60
2023-03-05T01:52:14.117Z,33.60
2023-03-05T01:54:47.982Z,33.60
2023-03-05T01:57:20.349Z,33.60
2023-03-05T01:59:51.189Z,33.60
2023-03-05T02:02:19.943Z,33.60
2023-03-05T02:04:50.950Z,33.60
2023-03-05T02:07:18.782Z,33.60
2023-03-05T02:09:45.873Z,33.60
2023-03-05T02:12:14.162Z,33.60
2023-03-05T02:14:44.262Z,33.60
2023-03-05T02:17:11.871Z,33.60
2023-03-05T02:19:51.433Z,33.50
2023-03-05T02:22:20.138Z,33.50
2023-03-05T02:24:51.090Z,33.50
2023-03-05T02:27:21.210Z,33.50
2023-03-05T02:29:48.273Z,33.50
2023-03-05T02:32:15.562Z,33.50
2023-03-05T02:34:42.745Z,33.40
2023-03-05T02:37:10.766Z,33.50
2023-03-05T02:39:38.416Z,33.40
2023-03-05T02:42:05.686Z,33.40
2023-03-05T02:44:32.927Z,33.40
2023-03-05T02:47:00.560Z,33.50
2023-03-05T02:49:28.388Z,33.40
2023-03-05T02:51:55.557Z,33.40
2023-03-05T02:54:22.773Z,33.50
2023-03-05T02:56:50.562Z,33.50
2023-03-05T02:59:17.667Z,33.50
2023-03-05T03:01:44.831Z,33.50
2023-03-05T03:04:11.929Z,33.50
2023-03-05T03:06:40.398Z,33.40
2023-03-05T03:09:07.531Z,33.40
2023-03-05T03:11:34.683Z,33.40
2023-03-05T03:14:01.817Z,34.00
2023-03-05T03:16:29.030Z,33.40
2023-03-05T03:18:56.172Z,33.40
2023-03-05T03:21:25.699Z,33.40
2023-03-05T03:23:53.233Z,33.40
2023-03-05T03:26:20.942Z,33.50
2023-03-05T03:28:48.100Z,33.50
2023-03-05T03:31:15.448Z,33.40
2023-03-05T03:33:42.728Z,33.40
2023-03-05T03:36:10.455Z,33.40
2023-03-05T03:38:37.566Z,33.40
2023-03-05T03:41:08.023Z,33.40
2023-03-05T03:43:38.142Z,33.40
2023-03-05T03:46:07.249Z,33.40
2023-03-05T03:48:34.553Z,33.40
2023-03-05T03:51:05.035Z,33.40
2023-03-05T03:53:31.980Z,33.40
2023-03-05T03:55:59.812Z,33.40
2023-03-05T03:58:26.936Z,33.50
2023-03-05T04:00:54.090Z,33.50
2023-03-05T04:03:21.336Z,34.00
2023-03-05T04:05:48.478Z,33.40
2023-03-05T04:08:15.682Z,33.40
2023-03-05T04:10:42.862Z,33.40
2023-03-05T04:13:10.253Z,33.40
2023-03-05T04:15:37.448Z,33.40
2023-03-05T04:18:04.742Z,33.40
2023-03-05T04:20:31.986Z,33.40
2023-03-05T04:22:59.140Z,33.50
2023-03-05T04:25:26.282Z,33.40
2023-03-05T04:27:54.068Z,33.40
2023-03-05T04:30:21.353Z,33.40
2023-03-05T04:32:48.585Z,33.30
2023-03-05T04:35:15.784Z,33.30
2023-03-05T04:37:42.946Z,33.30
2023-03-05T04:40:10.771Z,33.30
2023-03-05T04:42:37.931Z,33.30
2023-03-05T04:45:06.958Z,33.30
2023-03-05T04:47:34.775Z,33.30
2023-03-05T04:50:01.925Z,33.30
2023-03-05T04:52:29.521Z,33.30
2023-03-05T04:54:56.650Z,33.40
2023-03-05T04:57:24.171Z,33.30
2023-03-05T04:59:51.424Z,33.40
2023-03-05T05:02:18.674Z,33.90
2023-03-05T05:04:46.128Z,33.30
2023-03-05T05:07:13.262Z,33.30
2023-03-05T05:09:41.711Z,33.30
2023-03-05T05:12:10.566Z,33.30
2023-03-05T05:14:38.162Z,33.30
2023-03-05T05:17:05.414Z,33.30
2023-03-05T05:19:34.082Z,33.30
2023-03-05T05:22:02.372Z,33.30
2023-03-05T05:24:29.561Z,33.30
2023-03-05T05:26:57.195Z,33.30
2023-03-05T05:29:24.345Z,33.30
2023-03-05T05:31:51.570Z,33.30
2023-03-05T05:34:18.773Z,33.30
2023-03-05T05:36:45.930Z,33.20
2023-03-05T05:39:13.007Z,33.10
2023-03-05T05:41:40.183Z,33.00
2023-03-05T05:44:07.327Z,32.80
2023-03-05T05:46:34.436Z,32.80
2023-03-05T05:49:01.589Z,32.70
2023-03-05T05:51:28.800Z,32.80
2023-03-05T05:53:56.001Z,32.80
2023-03-05T05:56:23.131Z,32.80
2023-03-05T05:58:50.289Z,32.80
2023-03-05T06:01:29.447Z,32.70
2023-03-05T06:03:57.371Z,32.80
2023-03-05T06:06:26.326Z,32.80
2023-03-05T06:08:54.035Z,32.70
2023-03-05T06:11:21.700Z,32.70
2023-03-05T06:13:49.952Z,32.70
2023-03-05T06:16:20.614Z,32.60
2023-03-05T06:18:48.171Z,32.60
2023-03-05T06:21:17.478Z,32.60
2023-03-05T06:23:45.732Z,32.50
2023-03-05T06:26:15.620Z,32.40
2023-03-05T06:28:43.039Z,32.30
2023-03-05T06:31:19.396Z,32.40
2023-03-05T06:33:46.640Z,32.30
2023-03-05T06:36:18.750Z,32.30
2023-03-05T06:38:48.372Z,32.30
2023-03-05T06:41:20.285Z,32.30
2023-03-05T06:43:48.691Z,32.20
2023-03-05T06:46:20.896Z,32.10
2023-03-05T06:48:49.421Z,32.10
2023-03-05T06:51:22.872Z,32.10
2023-03-05T06:53:50.172Z,32.00
2023-03-05T06:56:18.643Z,31.90
2023-03-05T06:58:47.856Z,31.90
2023-03-05T07:01:15.848Z,31.80
2023-03-05T07:03:43.328Z,31.80
2023-03-05T07:06:14.530Z,31.80
2023-03-05T07:08:41.952Z,31.70
2023-03-05T07:11:15.709Z,31.60
2023-03-05T07:13:43.686Z,31.60
2023-03-05T07:16:15.151Z,31.60
2023-03-05T07:18:42.624Z,31.50
2023-03-05T07:21:13.154Z,31.40
2023-03-05T07:23:40.331Z,31.40
2023-03-05T07:26:07.793Z,31.40
2023-03-05T07:28:35.149Z,31.30
2023-03-05T07:31:05.344Z,31.30
2023-03-05T07:33:33.717Z,31.20
2023-03-05T07:36:01.712Z,31.10
2023-03-05T07:38:28.858Z,31.10
2023-03-05T07:40:55.957Z,31.00
2023-03-05T07:43:23.086Z,30.90
2023-03-05T07:45:50.221Z,30.80
2023-03-05T07:48:21.062Z,30.80
2023-03-05T07:50:49.354Z,30.70
2023-03-05T07:53:16.939Z,30.70
2023-03-05T07:55:48.113Z,30.60
2023-03-05T07:58:15.290Z,30.60
2023-03-05T08:00:42.421Z,30.50
2023-03-05T08:03:09.506Z,30.40
2023-03-05T08:05:40.420Z,30.30
2023-03-05T08:08:08.701Z,30.30
2023-03-05T08:10:36.958Z,30.20
2023-03-05T08:13:05.085Z,30.10
2023-03-05T08:15:32.481Z,30.00
2023-03-05T08:18:00.206Z,30.00
2023-03-05T08:20:27.524Z,30.00
2023-03-05T08:22:54.762Z,30.00
2023-03-05T08:25:22.624Z,30.00
2023-03-05T08:27:49.734Z,29.90
2023-03-05T08:30:22.540Z,29.80
2023-03-05T08:32:50.356Z,29.80
2023-03-05T08:35:17.548Z,29.70
2023-03-05T08:37:44.795Z,29.70
2023-03-05T08:40:12.470Z,29.60
2023-03-05T08:42:39.605Z,29.60
2023-03-05T08:45:07.876Z,29.50
2023-03-05T08:47:34.956Z,29.50
2023-03-05T08:50:02.184Z,29.40
2023-03-05T08:52:29.281Z,29.40
2023-03-05T08:54:56.456Z,29.30
2023-03-05T08:57:23.552Z,29.20
2023-03-05T08:59:50.705Z,29.10
2023-03-05T09:02:17.838Z,29.00
2023-03-05T09:04:44.954Z,29.00
2023-03-05T09:07:13.133Z,28.90
2023-03-05T09:09:40.534Z,28.90
2023-03-05T09:12:08.491Z,28.80
2023-03-05T09:14:36.290Z,28.80
2023-03-05T09:17:03.619Z,28.80
2023-03-05T09:19:30.729Z,28.70
2023-03-05T09:21:57.868Z,28.70
2023-03-05T09:24:25.095Z,28.70
2023-03-05T09:26:52.255Z,28.50
2023-03-05T09:29:19.431Z,28.50
2023-03-05T09:31:50.301Z,28.50
2023-03-05T09:34:17.404Z,28.40
2023-03-05T09:36:44.816Z,28.40
2023-03-05T09:39:12.030Z,28.40
2023-03-05T09:42:02.634Z,28.30
2023-03-05T09:45:09.397Z,28.30
2023-03-05T09:48:16.149Z,28.20
2023-03-05T09:50:48.460Z,28.20
2023-03-05T09:53:39.091Z,28.10
2023-03-05T09:56:24.012Z,28.00
2023-03-05T09:58:59.298Z,28.00
2023-03-05T10:01:38.996Z,28.00
2023-03-05T10:04:26.098Z,28.00
2023-03-05T10:07:13.982Z,27.90
2023-03-05T10:09:58.163Z,27.90
2023-03-05T10:12:45.153Z,27.90
2023-03-05T10:15:15.149Z,27.80
2023-03-05T10:18:14.716Z,27.80
2023-03-05T10:20:54.199Z,27.80
2023-03-05T10:23:45.570Z,27.70
2023-03-05T10:26:40.096Z,27.70
2023-03-05T10:29:45.607Z,27.60
2023-03-05T10:32:52.215Z,27.60
2023-03-05T10:35:49.203Z,27.60
2023-03-05T10:38:46.295Z,27.50
2023-03-05T10:41:37.304Z,27.50
2023-03-05T10:44:32.495Z,28.00
2023-03-05T10:47:03.417Z,27.50
2023-03-05T10:49:38.309Z,27.40
2023-03-05T10:52:18.542Z,27.40
2023-03-05T10:54:45.998Z,27.40
2023-03-05T10:57:25.325Z,27.40
2023-03-05T10:59:55.083Z,27.40
2023-03-05T11:02:23.392Z,27.30
2023-03-05T11:04:51.946Z,27.30
2023-03-05T11:07:35.362Z,27.20
2023-03-05T11:10:19.199Z,27.20
2023-03-05T11:12:46.401Z,27.20
2023-03-05T11:15:28.725Z,27.20
2023-03-05T11:18:18.008Z,27.20
2023-03-05T11:20:45.262Z,27.20
2023-03-05T11:23:20.320Z,27.20
2023-03-05T11:26:12.074Z,27.20
2023-03-05T11:28:55.362Z,27.10
2023-03-05T11:31:28.474Z,27.10
2023-03-05T11:34:08.545Z,27.00
2023-03-05T11:36:44.080Z,27.10
2023-03-05T11:39:19.705Z,27.10
2023-03-05T11:42:04.714Z,27.00
2023-03-05T11:44:52.910Z,27.00
2023-03-05T11:47:42.982Z,27.00
2023-03-05T11:50:24.836Z,27.00
2023-03-05T11:52:59.353Z,27.00
2023-03-05T11:55:33.317Z,27.00
2023-03-05T11:58:24.669Z,27.00
2023-03-05T12:00:52.000Z,26.90
2023-03-05T12:03:23.298Z,26.90
2023-03-05T12:06:02.283Z,26.90
2023-03-05T12:08:37.116Z,26.90
2023-03-05T12:11:12.845Z,26.90
2023-03-05T12:13:52.048Z,26.90
2023-03-05T12:16:43.892Z,26.90
2023-03-05T12:19:41.471Z,26.90
2023-03-05T12:22:33.624Z,26.80
2023-03-05T12:25:26.527Z,26.80
2023-03-05T12:27:53.818Z,26.80
2023-03-05T12:30:58.307Z,26.80
2023-03-05T12:33:38.311Z,26.80
2023-03-05T12:36:32.773Z,26.80
2023-03-05T12:39:00.178Z,26.80
2023-03-05T12:41:34.902Z,26.80
2023-03-05T12:44:18.144Z,26.80
2023-03-05T12:47:17.890Z,26.80
2023-03-05T12:49:46.397Z,26.80
2023-03-05T12:52:26.070Z,26.70
2023-03-05T12:55:16.824Z,26.70
2023-03-05T12:57:46.038Z,26.70
2023-03-05T13:00:27.464Z,26.70
2023-03-05T13:02:58.967Z,26.60
2023-03-05T13:05:36.350Z,26.70
2023-03-05T13:08:21.823Z,26.70
2023-03-05T13:11:06.245Z,26.70
2023-03-05T13:13:41.693Z,26.70
2023-03-05T13:16:26.684Z,26.60
2023-03-05T13:18:56.350Z,26.60
2023-03-05T13:21:32.871Z,26.60
2023-03-05T13:24:02.686Z,26.60
2023-03-05T13:26:40.912Z,26.60
2023-03-05T13:29:13.714Z,26.50
2023-03-05T13:31:52.200Z,26.50
2023-03-05T13:34:26.522Z,26.50
2023-03-05T13:37:07.512Z,26.50
2023-03-05T13:39:40.446Z,26.50
2023-03-05T13:42:20.347Z,26.50
2023-03-05T13:44:59.295Z,26.60
2023-03-05T13:47:29.387Z,26.90
2023-03-05T13:50:00.182Z,26.50
2023-03-05T13:52:33.029Z,26.50
2023-03-05T13:55:01.963Z,26.50
2023-03-05T13:57:39.130Z,26.50
2023-03-05T14:00:36.298Z,26.50
2023-03-05T14:03:25.040Z,26.50
2023-03-05T14:05:52.172Z,26.50
2023-03-05T14:08:25.661Z,26.40
2023-03-05T14:10:57.676Z,26.40
2023-03-05T14:13:27.902Z,26.40
2023-03-05T14:16:12.769Z,26.40
2023-03-05T14:18:52.611Z,26.40
2023-03-05T14:21:19.757Z,26.50
2023-03-05T14:23:49.526Z,26.50
2023-03-05T14:26:32.468Z,26.50
2023-03-05T14:29:21.289Z,26.40
2023-03-05T14:31:56.585Z,26.50
2023-03-05T14:34:28.622Z,26.50
2023-03-05T14:36:59.555Z,26.50
2023-03-05T14:39:30.322Z,26.50
2023-03-05T14:42:14.761Z,26.50
2023-03-05T14:44:41.899Z,26.40
2023-03-05T14:47:09.057Z,26.40
2023-03-05T14:49:36.422Z,26.40
2023-03-05T14:52:03.790Z,26.50
2023-03-05T14:54:36.271Z,26.40
2023-03-05T14:57:05.775Z,26.40
2023-03-05T14:59:33.000Z,26.50
2023-03-05T15:02:00.120Z,26.50
2023-03-05T15:04:27.251Z,26.50
2023-03-05T15:06:54.398Z,26.60
2023-03-05T15:09:21.640Z,26.60
2023-03-05T15:11:49.146Z,26.70
2023-03-05T15:14:16.404Z,26.80
2023-03-05T15:16:45.567Z,26.90
2023-03-05T15:19:13.911Z,26.90
2023-03-05T15:21:41.632Z,27.00
2023-03-05T15:24:11.411Z,27.00
2023-03-05T15:26:38.877Z,27.10
2023-03-05T15:29:06.051Z,27.20
2023-03-05T15:31:38.749Z,27.20
2023-03-05T15:34:06.477Z,27.30
2023-03-05T15:36:33.929Z,27.40
2023-03-05T15:39:01.555Z,27.50
2023-03-05T15:41:28.786Z,27.60
2023-03-05T15:43:56.064Z,27.60
2023-03-05T15:46:23.212Z,27.70
2023-03-05T15:48:51.763Z,27.80
2023-03-05T15:51:20.368Z,27.80
2023-03-05T15:53:47.750Z,27.90
2023-03-05T15:56:19.191Z,27.90
2023-03-05T15:58:48.705Z,28.00
2023-03-05T16:01:16.372Z,28.50
2023-03-05T16:03:43.493Z,28.10
2023-03-05T16:06:12.871Z,28.20
2023-03-05T16:08:44.200Z,28.30
2023-03-05T16:11:11.634Z,28.30
2023-03-05T16:13:39.102Z,28.40
2023-03-05T16:16:07.983Z,28.40
2023-03-05T16:18:39.638Z,28.50
2023-03-05T16:21:06.725Z,28.60
2023-03-05T16:23:33.886Z,28.70
2023-03-05T16:26:01.035Z,28.60
2023-03-05T16:28:28.407Z,28.70
2023-03-05T16:30:57.922Z,28.80
2023-03-05T16:33:25.799Z,28.80
2023-03-05T16:36:20.790Z,28.90
2023-03-05T16:38:50.331Z,28.90
2023-03-05T16:41:18.393Z,29.00
2023-03-05T16:43:45.700Z,29.00
2023-03-05T16:46:15.000Z,29.00
2023-03-05T16:48:43.753Z,29.10
2023-03-05T16:51:12.602Z,29.10
2023-03-05T16:53:40.933Z,29.20
2023-03-05T16:56:09.502Z,29.20
2023-03-05T16:58:38.561Z,29.20
2023-03-05T17:01:18.138Z,29.20
2023-03-05T17:03:46.284Z,29.20
2023-03-05T17:06:17.027Z,29.30
2023-03-05T17:08:46.315Z,29.40
2023-03-05T17:11:14.187Z,29.30
2023-03-05T17:13:42.024Z,29.40
2023-03-05T17:16:11.102Z,29.40
2023-03-05T17:18:38.521Z,29.40
2023-03-05T17:21:07.618Z,29.40
2023-03-05T17:23:38.241Z,29.50
2023-03-05T17:26:07.935Z,29.50
2023-03-05T17:28:35.141Z,29.50
2023-03-05T17:31:02.627Z,29.50
2023-03-05T17:33:31.060Z,29.60
2023-03-05T17:35:58.786Z,29.60
2023-03-05T17:38:26.677Z,29.60
2023-03-05T17:40:54.072Z,29.70
2023-03-05T17:43:21.221Z,29.70
2023-03-05T17:45:48.656Z,29.70
2023-03-05T17:48:16.160Z,29.70
2023-03-05T17:50:45.117Z,29.70
2023-03-05T17:53:12.798Z,29.70
2023-03-05T17:55:40.673Z,29.70
2023-03-05T17:58:08.428Z,29.80
2023-03-05T18:00:36.243Z,29.80
2023-03-05T18:03:04.428Z,29.80
2023-03-05T18:05:31.932Z,29.80
2023-03-05T18:08:00.890Z,29.80
2023-03-05T18:10:29.498Z,29.80
2023-03-05T18:13:00.704Z,29.80
2023-03-05T18:15:29.206Z,29.90
2023-03-05T18:17:57.005Z,29.90
2023-03-05T18:20:34.546Z,29.90
2023-03-05T18:23:03.784Z,29.90
2023-03-05T18:25:32.088Z,30.00
2023-03-05T18:28:01.390Z,29.90
2023-03-05T18:30:29.464Z,29.90
2023-03-05T18:32:56.880Z,30.00
2023-03-05T18:35:24.704Z,30.00
2023-03-05T18:37:51.988Z,30.00
2023-03-05T18:40:22.652Z,30.00
2023-03-05T18:42:50.740Z,30.00
2023-03-05T18:45:20.678Z,30.00
2023-03-05T18:47:49.183Z,30.00
2023-03-05T18:50:18.742Z,30.00
2023-03-05T18:52:46.483Z,30.00
2023-03-05T18:55:21.292Z,30.00
2023-03-05T18:57:49.458Z,30.00
2023-03-05T19:00:19.598Z,30.00
2023-03-05T19:02:46.766Z,30.00
2023-03-05T19:05:15.234Z,30.00
2023-03-05T19:07:42.767Z,30.10
2023-03-05T19:10:12.423Z,30.10
2023-03-05T19:12:58.058Z,30.60
2023-03-05T19:15:25.162Z,30.10
2023-03-05T19:17:52.359Z,30.10
2023-03-05T19:20:19.719Z,30.10
2023-03-05T19:22:46.963Z,30.10
2023-03-05T19:25:14.116Z,30.20
2023-03-05T19:27:41.380Z,30.20
2023-03-05T19:30:09.788Z,30.20
2023-03-05T19:32:37.048Z,30.20
2023-03-05T19:35:04.440Z,30.20
2023-03-05T19:37:32.348Z,30.30
2023-03-05T19:39:59.476Z,30.20
2023-03-05T19:42:26.602Z,30.30
2023-03-05T19:44:54.605Z,30.30
2023-03-05T19:47:21.738Z,30.30
2023-03-05T19:49:48.816Z,30.30
2023-03-05T19:52:15.962Z,30.30
2023-03-05T19:54:43.093Z,30.30
2023-03-05T19:57:10.580Z,30.30
2023-03-05T19:59:37.674Z,30.40
2023-03-05T20:02:04.806Z,30.40
2023-03-05T20:04:31.951Z,30.40
2023-03-05T20:06:59.044Z,30.40
2023-03-05T20:09:26.186Z,30.40
2023-03-05T20:11:53.382Z,30.50
2023-03-05T20:14:20.490Z,30.40
2023-03-05T20:16:47.614Z,30.50
2023-03-05T20:19:18.839Z,30.50
2023-03-05T20:21:46.446Z,30.50
2023-03-05T20:24:16.684Z,30.50
2023-03-05T20:26:45.877Z,30.50
2023-03-05T20:29:17.272Z,30.50
2023-03-05T20:31:45.353Z,30.60
2023-03-05T20:34:16.153Z,30.60
2023-03-05T20:36:43.516Z,30.60
2023-03-05T20:39:11.046Z,30.60
2023-03-05T20:41:39.914Z,30.60
2023-03-05T20:44:08.143Z,30.60
2023-03-05T20:46:39.655Z,30.60
2023-03-05T20:49:06.945Z,30.60
2023-03-05T20:51:37.943Z,30.60
2023-03-05T20:54:11.378Z,30.70
2023-03-05T20:56:38.849Z,31.20
2023-03-05T20:59:08.979Z,30.70
2023-03-05T21:01:39.296Z,30.70
2023-03-05T21:04:06.988Z,30.70
2023-03-05T21:06:34.918Z,30.70
2023-03-05T21:09:02.117Z,30.70
2023-03-05T21:11:29.321Z,30.70
2023-03-05T21:13:56.555Z,30.70
2023-03-05T21:16:26.256Z,30.70
2023-03-05T21:18:54.072Z,30.70
2023-03-05T21:21:21.152Z,30.80
2023-03-05T21:23:48.302Z,30.70
2023-03-05T21:26:15.775Z,30.70
2023-03-05T21:28:43.183Z,30.70
2023-03-05T21:31:19.958Z,30.80
2023-03-05T21:33:47.146Z,30.70
2023-03-05T21:36:18.871Z,30.80
2023-03-05T21:38:49.819Z,30.80
2023-03-05T21:41:18.299Z,30.80
2023-03-05T21:43:45.544Z,30.90
2023-03-05T21:46:13.159Z,30.80
2023-03-05T21:48:40.399Z,30.80
2023-03-05T21:51:28.459Z,30.90
2023-03-05T21:53:55.607Z,30.80
2023-03-05T21:56:25.224Z,30.90
2023-03-05T21:58:54.103Z,30.90
2023-03-05T22:01:21.669Z,30.90
2023-03-05T22:03:49.571Z,30.90
2023-03-05T22:06:19.009Z,30.90
2023-03-05T22:08:47.276Z,30.90
2023-03-05T22:11:18.128Z,30.90
2023-03-05T22:13:45.443Z,30.90
2023-03-05T22:16:23.379Z,30.90
2023-03-05T22:18:52.188Z,30.90
2023-03-05T22:21:22.680Z,30.90
2023-03-05T22:23:50.099Z,30.90
2023-03-05T22:26:17.315Z,31.00
2023-03-05T22:28:44.491Z,31.10
2023-03-05T22:31:11.942Z,31.00
2023-03-05T22:33:39.159Z,31.00
2023-03-05T22:36:11.345Z,31.00
2023-03-05T22:38:38.582Z,31.60
2023-03-05T22:41:13.595Z,31.10
2023-03-05T22:43:41.378Z,31.00
2023-03-05T22:46:14.492Z,31.00
2023-03-05T22:48:42.073Z,31.10
2023-03-05T22:51:10.588Z,31.00
2023-03-05T22:53:38.975Z,31.10
2023-03-05T22:56:12.254Z,31.10
2023-03-05T22:58:39.840Z,31.10
2023-03-05T23:01:16.572Z,31.10
2023-03-05T23:03:58.744Z,31.10
2023-03-05T23:06:25.972Z,31.10
2023-03-05T23:08:53.032Z,31.20
2023-03-05T23:11:20.219Z,31.10
2023-03-05T23:13:47.372Z,31.20
2023-03-05T23:16:14.492Z,31.20
2023-03-05T23:18:41.666Z,31.20
2023-03-05T23:21:08.803Z,31.20
2023-03-05T23:23:35.953Z,31.20
2023-03-05T23:26:03.141Z,31.20
2023-03-05T23:28:30.531Z,31.20
2023-03-05T23:30:58.190Z,31.20
2023-03-05T23:33:25.509Z,31.20
2023-03-05T23:35:56.235Z,30.70
2023-03-05T23:38:24.485Z,31.20
2023-03-05T23:40:54.154Z,31.20
2023-03-05T23:43:24.650Z,31.20
2023-03-05T23:45:55.969Z,31.20
2023-03-05T23:48:24.952Z,31.20
2023-03-05T23:50:52.171Z,31.20
2023-03-05T23:53:22.933Z,31.20
2023-03-05T23:55:50.491Z,31.20
2023-03-05T23:58:20.436Z,31.30
